createdAt,value
2018-11-05T00:01:57.594Z,52.24
2018-11-05T00:04:27.261Z,52.54
2018-11-05T00:06:57.421Z,51.84
2018-11-05T00:09:27.457Z,52.62
2018-11-05T00:11:58.621Z,52.57
2018-11-05T00:14:28.285Z,52.30
2018-11-05T00:16:59.011Z,52.72
2018-11-05T00:19:29.100Z,52.49
2018-11-05T00:21:59.370Z,52.43
2018-11-05T00:24:29.118Z,52.31
2018-11-05T00:26:59.412Z,52.72
2018-11-05T00:29:29.502Z,52.91
2018-11-05T00:31:59.118Z,52.83
2018-11-05T00:34:29.169Z,52.82
2018-11-05T00:36:59.271Z,52.55
2018-11-05T00:39:28.862Z,53.03
2018-11-05T00:41:59.189Z,52.76
2018-11-05T00:44:29.386Z,52.74
2018-11-05T00:46:59.706Z,52.17
2018-11-05T00:49:29.238Z,52.97
2018-11-05T00:51:58.944Z,53.36
2018-11-05T00:54:28.781Z,52.77
2018-11-05T00:56:58.370Z,53.18
2018-11-05T00:59:28.053Z,52.67
2018-11-05T01:01:57.666Z,52.20
2018-11-05T01:04:27.608Z,52.82
2018-11-05T01:06:57.216Z,53.08
2018-11-05T01:09:27.550Z,53.23
2018-11-05T01:11:58.198Z,52.70
2018-11-05T01:14:28.250Z,53.29
2018-11-05T01:16:57.965Z,52.75
2018-11-05T01:19:27.596Z,52.32
2018-11-05T01:21:57.957Z,52.68
2018-11-05T01:24:27.757Z,53.24
2018-11-05T01:26:57.355Z,53.16
2018-11-05T01:29:27.118Z,52.79
2018-11-05T01:31:56.799Z,53.03
2018-11-05T01:34:26.618Z,52.47
2018-11-05T01:36:56.688Z,52.74
2018-11-05T01:39:26.433Z,52.85
2018-11-05T01:41:56.396Z,52.71
2018-11-05T01:44:26.606Z,52.67
2018-11-05T01:46:56.461Z,53.21
2018-11-05T01:49:26.099Z,53.29
2018-11-05T01:51:56.083Z,52.96
2018-11-05T01:54:26.038Z,52.95
2018-11-05T01:56:55.737Z,52.42
2018-11-05T01:59:25.577Z,52.82
2018-11-05T02:01:55.303Z,53.08
2018-11-05T02:04:24.966Z,52.82
2018-11-05T02:06:54.714Z,52.02
2018-11-05T02:09:24.314Z,53.16
2018-11-05T02:11:54.193Z,53.15
2018-11-05T02:14:24.177Z,53.39
2018-11-05T02:16:54.208Z,52.36
2018-11-05T02:19:23.874Z,53.26
2018-11-05T02:21:53.473Z,53.59
2018-11-05T02:24:23.029Z,53.28
2018-11-05T02:26:53.159Z,52.83
2018-11-05T02:29:23.166Z,52.60
2018-11-05T02:31:52.731Z,52.99
2018-11-05T02:34:22.888Z,52.66
2018-11-05T02:36:52.559Z,52.70
2018-11-05T02:39:22.305Z,53.12
2018-11-05T02:41:52.755Z,52.83
2018-11-05T02:44:22.414Z,53.20
2018-11-05T02:46:52.367Z,53.13
2018-11-05T02:49:21.880Z,53.20
2018-11-05T02:51:52.434Z,52.70
2018-11-05T02:54:22.066Z,52.59
2018-11-05T02:56:51.729Z,52.72
2018-11-05T02:59:21.740Z,52.13
2018-11-05T03:01:51.421Z,52.58
2018-11-05T03:04:21.014Z,52.62
2018-11-05T03:06:51.034Z,52.23
2018-11-05T03:09:20.694Z,52.98
2018-11-05T03:11:50.391Z,52.81
2018-11-05T03:14:19.940Z,53.24
2018-11-05T03:16:49.617Z,52.77
2018-11-05T03:19:19.323Z,52.51
2018-11-05T03:21:49.665Z,53.15
2018-11-05T03:24:19.315Z,53.10
2018-11-05T03:26:49.067Z,53.14
2018-11-05T03:29:19.098Z,53.34
2018-11-05T03:31:49.429Z,53.06
2018-11-05T03:34:19.128Z,52.78
2018-11-05T03:36:48.838Z,52.99
2018-11-05T03:39:18.704Z,52.77
2018-11-05T03:41:48.872Z,52.91
2018-11-05T03:51:05.818Z,52.53
2018-11-05T03:53:35.636Z,52.65
2018-11-05T03:56:05.728Z,52.48
2018-11-05T03:58:35.690Z,52.88
2018-11-05T04:01:05.445Z,52.88
2018-11-05T04:03:35.537Z,53.02
2018-11-05T04:06:06.020Z,53.05
2018-11-05T04:08:35.755Z,53.08
2018-11-05T04:11:05.936Z,52.73
2018-11-05T04:13:35.725Z,52.66
2018-11-05T04:16:06.201Z,53.04
2018-11-05T04:18:37.077Z,52.36
2018-11-05T04:21:06.710Z,53.18
2018-11-05T04:23:36.751Z,52.84
2018-11-05T04:26:06.912Z,53.02
2018-11-05T04:28:36.889Z,52.95
2018-11-05T04:31:06.789Z,53.19
2018-11-05T04:33:37.145Z,52.88
2018-11-05T04:36:06.795Z,53.30
2018-11-05T04:38:36.475Z,53.07
2018-11-05T04:41:06.280Z,53.22
2018-11-05T04:43:36.129Z,52.86
2018-11-05T04:46:05.783Z,53.39
2018-11-05T04:48:35.550Z,53.04
2018-11-05T04:51:06.010Z,53.02
2018-11-05T04:53:36.033Z,53.14
2018-11-05T04:56:05.787Z,52.52
2018-11-05T04:58:35.831Z,53.46
2018-11-05T05:01:05.612Z,53.11
2018-11-05T05:03:35.743Z,52.54
2018-11-05T05:06:05.413Z,53.12
2018-11-05T05:08:35.965Z,53.08
2018-11-05T05:11:06.391Z,52.71
2018-11-05T05:13:36.138Z,53.30
2018-11-05T05:16:05.832Z,52.75
2018-11-05T05:18:35.499Z,52.89
2018-11-05T05:21:05.286Z,53.55
2018-11-05T05:23:34.955Z,52.94
2018-11-05T05:26:04.633Z,52.75
2018-11-05T05:28:36.389Z,53.27
2018-11-05T05:31:08.787Z,52.88
2018-11-05T05:33:39.259Z,52.83
2018-11-05T05:36:09.225Z,53.07
2018-11-05T05:38:39.018Z,53.04
2018-11-05T05:41:08.799Z,53.52
2018-11-05T05:43:39.786Z,53.68
2018-11-05T05:46:09.841Z,53.50
2018-11-05T05:48:39.835Z,53.67
2018-11-05T05:51:09.817Z,53.61
2018-11-05T05:53:39.461Z,53.56
2018-11-05T05:56:09.109Z,53.49
2018-11-05T05:58:38.796Z,53.80
2018-11-05T06:01:08.730Z,53.31
2018-11-05T06:03:38.703Z,53.43
2018-11-05T06:06:09.470Z,53.36
2018-11-05T06:08:39.101Z,53.44
2018-11-05T06:11:09.020Z,53.30
2018-11-05T06:13:39.056Z,53.08
2018-11-05T06:16:09.298Z,53.03
2018-11-05T06:18:39.236Z,53.25
2018-11-05T06:21:09.646Z,52.91
2018-11-05T06:23:39.624Z,52.79
2018-11-05T06:26:09.575Z,52.74
2018-11-05T06:28:39.876Z,53.23
2018-11-05T06:31:10.181Z,52.71
2018-11-05T06:33:40.348Z,52.61
2018-11-05T06:36:10.360Z,52.54
2018-11-05T06:38:40.181Z,52.97
2018-11-05T06:41:10.269Z,52.62
2018-11-05T06:43:40.222Z,52.39
2018-11-05T06:46:10.203Z,52.21
2018-11-05T06:48:40.256Z,52.29
2018-11-05T06:51:11.098Z,52.32
2018-11-05T06:53:41.857Z,51.88
2018-11-05T06:56:12.307Z,52.27
2018-11-05T06:58:42.372Z,52.42
2018-11-05T07:01:12.095Z,52.41
2018-11-05T07:03:42.318Z,52.01
2018-11-05T07:06:12.366Z,52.36
2018-11-05T07:08:41.959Z,52.37
2018-11-05T07:11:11.734Z,52.50
2018-11-05T07:13:41.388Z,52.21
2018-11-05T07:16:11.193Z,52.11
2018-11-05T07:18:41.223Z,52.10
2018-11-05T07:21:12.499Z,51.75
2018-11-05T07:23:42.388Z,51.88
2018-11-05T07:26:13.480Z,51.57
2018-11-05T07:28:44.630Z,51.65
2018-11-05T07:31:14.614Z,51.55
2018-11-05T07:33:44.758Z,51.49
2018-11-05T07:36:14.828Z,51.33
2018-11-05T07:38:44.494Z,51.50
2018-11-05T07:41:14.518Z,51.40
2018-11-05T07:43:44.187Z,51.61
2018-11-05T07:46:14.130Z,51.54
2018-11-05T07:48:44.058Z,50.99
2018-11-05T07:51:14.092Z,51.18
2018-11-05T07:53:44.194Z,50.82
2018-11-05T07:56:13.961Z,51.42
2018-11-05T07:58:43.859Z,51.23
2018-11-05T08:01:13.734Z,51.12
2018-11-05T08:03:43.518Z,50.98
2018-11-05T08:06:14.480Z,50.84
2018-11-05T08:08:45.135Z,51.23
2018-11-05T08:11:15.265Z,50.95
2018-11-05T08:13:45.139Z,51.10
2018-11-05T08:16:14.990Z,51.00
2018-11-05T08:18:44.794Z,50.69
2018-11-05T08:21:14.936Z,50.79
2018-11-05T08:23:45.475Z,50.55
2018-11-05T08:26:15.401Z,50.61
2018-11-05T08:28:45.259Z,50.74
2018-11-05T08:31:14.812Z,50.53
2018-11-05T08:33:44.932Z,50.49
2018-11-05T08:36:15.774Z,50.49
2018-11-05T08:38:46.301Z,50.54
2018-11-05T08:41:16.300Z,50.31
2018-11-05T08:43:46.099Z,50.18
2018-11-05T08:46:16.270Z,50.63
2018-11-05T08:48:45.969Z,50.38
2018-11-05T08:51:16.871Z,50.28
2018-11-05T08:53:47.863Z,50.47
2018-11-05T08:56:17.593Z,50.42
2018-11-05T08:58:47.688Z,50.29
2018-11-05T09:01:18.155Z,50.15
2018-11-05T09:03:49.505Z,49.89
2018-11-05T09:06:19.786Z,50.22
2018-11-05T09:08:49.976Z,50.25
2018-11-05T09:11:20.171Z,50.19
2018-11-05T09:13:49.474Z,50.01
2018-11-05T09:16:19.134Z,49.81
2018-11-05T09:18:49.765Z,49.90
2018-11-05T09:21:19.399Z,49.85
2018-11-05T09:23:49.530Z,50.05
2018-11-05T09:26:19.708Z,49.95
2018-11-05T09:28:49.857Z,49.54
2018-11-05T09:31:19.722Z,49.48
2018-11-05T09:33:50.199Z,49.35
2018-11-05T09:36:20.490Z,49.68
2018-11-05T09:38:50.453Z,49.85
2018-11-05T09:41:20.847Z,49.27
2018-11-05T09:43:50.933Z,49.61
2018-11-05T09:46:20.644Z,49.28
2018-11-05T09:48:50.955Z,49.70
2018-11-05T09:51:21.046Z,49.27
2018-11-05T09:53:51.158Z,49.60
2018-11-05T09:56:20.906Z,49.28
2018-11-05T09:58:50.552Z,49.29
2018-11-05T10:01:20.356Z,49.18
2018-11-05T10:03:56.809Z,49.07
2018-11-05T10:06:27.779Z,49.20
2018-11-05T10:08:58.100Z,49.20
2018-11-05T10:11:27.908Z,48.91
2018-11-05T10:13:57.878Z,49.28
2018-11-05T10:16:27.873Z,49.00
2018-11-05T10:18:58.443Z,48.86
2018-11-05T10:21:28.926Z,48.97
2018-11-05T10:23:59.769Z,49.09
2018-11-05T10:26:29.547Z,48.65
2018-11-05T10:28:59.869Z,48.96
2018-11-05T10:31:30.403Z,48.87
2018-11-05T10:34:00.801Z,48.87
2018-11-05T10:36:30.781Z,48.86
2018-11-05T10:39:00.442Z,48.39
2018-11-05T10:41:30.348Z,48.52
2018-11-05T10:44:00.261Z,48.83
2018-11-05T10:46:30.341Z,48.56
2018-11-05T10:49:00.292Z,48.42
2018-11-05T10:51:30.484Z,48.51
2018-11-05T10:54:02.118Z,48.30
2018-11-05T10:56:31.903Z,48.58
2018-11-05T10:59:02.829Z,48.36
2018-11-05T11:01:37.392Z,48.65
2018-11-05T11:04:12.542Z,48.29
2018-11-05T11:06:43.197Z,48.40
2018-11-05T11:09:13.251Z,48.43
2018-11-05T11:11:43.573Z,48.12
2018-11-05T11:14:13.802Z,48.21
2018-11-05T11:16:43.519Z,48.03
2018-11-05T11:19:14.016Z,48.44
2018-11-05T11:21:44.171Z,48.29
2018-11-05T11:24:14.242Z,48.19
2018-11-05T11:26:44.180Z,47.88
2018-11-05T11:29:14.248Z,48.28
2018-11-05T11:31:44.251Z,48.10
2018-11-05T11:34:14.062Z,47.84
2018-11-05T11:36:43.855Z,47.86
2018-11-05T11:39:14.312Z,48.04
2018-11-05T11:41:47.194Z,48.13
2018-11-05T11:44:17.076Z,47.99
2018-11-05T11:46:48.202Z,48.06
2018-11-05T11:49:18.104Z,48.02
2018-11-05T11:51:48.743Z,47.88
2018-11-05T11:54:19.457Z,48.04
2018-11-05T11:56:49.608Z,47.88
2018-11-05T11:59:19.317Z,48.08
2018-11-05T12:01:54.037Z,48.05
2018-11-05T12:04:25.886Z,47.76
2018-11-05T12:06:55.548Z,47.69
2018-11-05T12:09:25.801Z,47.89
2018-11-05T12:11:56.021Z,47.72
2018-11-05T12:14:26.125Z,47.77
2018-11-05T12:16:56.021Z,47.63
2018-11-05T12:19:26.440Z,47.94
2018-11-05T12:21:56.215Z,47.75
2018-11-05T12:24:26.105Z,47.68
2018-11-05T12:26:55.865Z,47.64
2018-11-05T12:29:26.158Z,47.79
2018-11-05T12:31:56.341Z,47.94
2018-11-05T12:34:26.016Z,47.93
2018-11-05T12:36:56.455Z,47.84
2018-11-05T12:39:26.619Z,47.68
2018-11-05T12:41:57.137Z,47.66
2018-11-05T12:44:27.139Z,47.83
2018-11-05T12:46:56.842Z,47.54
2018-11-05T12:49:27.133Z,47.57
2018-11-05T12:51:57.160Z,47.72
2018-11-05T12:54:28.408Z,47.39
2018-11-05T12:56:58.147Z,47.43
2018-11-05T12:59:28.130Z,47.79
2018-11-05T13:01:59.083Z,47.52
2018-11-05T13:04:29.289Z,47.75
2018-11-05T13:06:59.212Z,47.65
2018-11-05T13:09:29.430Z,47.77
2018-11-05T13:12:01.293Z,47.42
2018-11-05T13:14:30.999Z,47.86
2018-11-05T13:17:00.870Z,47.40
2018-11-05T13:19:30.909Z,47.59
2018-11-05T13:22:01.290Z,47.72
2018-11-05T13:24:31.225Z,47.56
2018-11-05T13:27:02.557Z,48.09
2018-11-05T13:29:32.978Z,47.87
2018-11-05T13:32:03.205Z,48.03
2018-11-05T13:34:35.237Z,47.73
2018-11-05T13:37:05.256Z,47.98
2018-11-05T13:39:35.150Z,48.01
2018-11-05T13:42:05.347Z,47.75
2018-11-05T13:44:35.323Z,47.80
2018-11-05T13:47:05.299Z,47.72
2018-11-05T13:49:34.511Z,47.74
2018-11-05T13:52:05.929Z,47.71
2018-11-05T13:54:36.339Z,47.80
2018-11-05T13:57:07.511Z,47.70
2018-11-05T13:59:38.114Z,47.94
2018-11-05T14:02:09.505Z,47.77
2018-11-05T14:04:41.439Z,47.67
2018-11-05T14:07:11.783Z,47.60
2018-11-05T14:09:42.721Z,47.62
2018-11-05T14:12:12.414Z,47.64
2018-11-05T14:14:42.660Z,47.65
2018-11-05T14:17:12.606Z,47.82
2018-11-05T14:19:42.747Z,48.02
2018-11-05T14:22:12.942Z,48.06
2018-11-05T14:24:43.626Z,48.18
2018-11-05T14:27:13.482Z,47.98
2018-11-05T14:29:44.354Z,47.94
2018-11-05T14:32:14.147Z,47.79
2018-11-05T14:34:44.276Z,47.77
2018-11-05T14:37:14.426Z,48.00
2018-11-05T14:39:44.594Z,48.29
2018-11-05T14:42:16.671Z,48.29
2018-11-05T14:44:50.687Z,48.17
2018-11-05T14:47:22.231Z,48.05
2018-11-05T14:49:55.086Z,48.10
2018-11-05T14:52:28.231Z,48.04
2018-11-05T14:55:01.729Z,47.91
2018-11-05T14:57:32.433Z,48.47
2018-11-05T15:00:03.008Z,47.99
2018-11-05T15:02:38.000Z,48.01
2018-11-05T15:05:08.459Z,48.08
2018-11-05T15:14:29.620Z,48.29
2018-11-05T15:17:00.046Z,48.39
2018-11-05T15:19:30.744Z,48.33
2018-11-05T15:22:00.208Z,48.64
2018-11-05T15:24:29.926Z,48.43
2018-11-05T15:27:00.135Z,48.26
2018-11-05T15:29:29.854Z,48.63
2018-11-05T15:31:59.543Z,48.58
2018-11-05T15:34:29.447Z,48.43
2018-11-05T15:36:59.194Z,48.60
2018-11-05T15:39:29.438Z,48.41
2018-11-05T15:41:59.886Z,48.27
2018-11-05T15:44:30.054Z,48.73
2018-11-05T15:47:01.243Z,48.36
2018-11-05T15:49:30.945Z,48.45
2018-11-05T15:52:01.376Z,48.56
2018-11-05T15:54:31.386Z,48.49
2018-11-05T15:57:00.953Z,48.46
2018-11-05T15:59:30.664Z,48.38
2018-11-05T16:02:05.234Z,48.65
2018-11-05T16:04:35.930Z,48.46
2018-11-05T16:07:06.211Z,48.96
2018-11-05T16:09:36.301Z,48.67
2018-11-05T16:12:06.604Z,48.75
2018-11-05T16:14:38.109Z,48.95
2018-11-05T16:17:08.502Z,49.29
2018-11-05T16:19:38.745Z,49.39
2018-11-05T16:22:08.790Z,49.35
2018-11-05T16:24:39.231Z,49.69
2018-11-05T16:27:09.743Z,49.42
2018-11-05T16:29:40.501Z,49.45
2018-11-05T16:32:12.408Z,49.55
2018-11-05T16:34:42.843Z,49.35
2018-11-05T16:37:13.768Z,49.50
2018-11-05T16:39:44.345Z,49.58
2018-11-05T16:42:14.433Z,49.56
2018-11-05T16:44:45.850Z,49.32
2018-11-05T16:47:17.180Z,49.96
2018-11-05T16:49:47.596Z,49.52
2018-11-05T16:52:17.865Z,49.72
2018-11-05T16:54:47.765Z,49.74
2018-11-05T16:57:18.212Z,49.86
2018-11-05T16:59:48.490Z,49.98
2018-11-05T17:02:21.388Z,50.00
2018-11-05T17:04:51.095Z,50.05
2018-11-05T17:07:21.209Z,50.46
2018-11-05T17:09:51.170Z,50.37
2018-11-05T17:12:21.392Z,50.32
2018-11-05T17:14:51.640Z,50.48
2018-11-05T17:17:22.268Z,50.47
2018-11-05T17:19:52.395Z,50.44
2018-11-05T17:22:24.452Z,50.52
2018-11-05T17:24:54.720Z,50.58
2018-11-05T17:27:25.246Z,50.27
2018-11-05T17:29:55.207Z,50.04
2018-11-05T17:32:25.179Z,50.47
2018-11-05T17:34:55.419Z,50.33
2018-11-05T17:37:25.422Z,50.41
2018-11-05T17:39:57.469Z,49.87
2018-11-05T17:42:27.453Z,49.86
2018-11-05T17:44:58.380Z,50.05
2018-11-05T17:47:31.300Z,50.08
2018-11-05T17:50:00.879Z,50.20
2018-11-05T17:52:30.872Z,50.14
2018-11-05T17:55:01.091Z,50.13
2018-11-05T17:57:30.905Z,50.03
2018-11-05T18:00:01.368Z,49.98
2018-11-05T18:02:31.731Z,49.86
2018-11-05T18:05:02.414Z,50.38
2018-11-05T18:07:32.899Z,50.23
2018-11-05T18:10:04.330Z,49.89
2018-11-05T18:12:34.464Z,50.18
2018-11-05T18:15:07.223Z,50.31
2018-11-05T18:17:37.173Z,50.18
2018-11-05T18:20:08.974Z,50.36
2018-11-05T18:22:39.524Z,50.41
2018-11-05T18:25:13.139Z,50.00
2018-11-05T18:27:51.726Z,50.35
2018-11-05T18:30:22.639Z,50.28
2018-11-05T18:32:53.361Z,50.29
2018-11-05T18:35:23.183Z,50.13
2018-11-05T18:37:53.822Z,50.11
2018-11-05T18:40:24.274Z,50.23
2018-11-05T18:42:54.142Z,50.17
2018-11-05T18:45:24.486Z,50.17
2018-11-05T18:47:54.437Z,50.23
2018-11-05T18:50:25.513Z,50.29
2018-11-05T18:52:57.353Z,50.15
2018-11-05T18:55:27.833Z,50.47
2018-11-05T18:57:57.530Z,50.25
2018-11-05T19:00:28.565Z,49.96
2018-11-05T19:02:58.962Z,50.23
2018-11-05T19:05:29.920Z,50.39
2018-11-05T19:07:59.636Z,49.99
2018-11-05T19:10:29.378Z,50.39
2018-11-05T19:13:00.126Z,50.16
2018-11-05T19:15:33.895Z,49.97
2018-11-05T19:18:03.690Z,50.40
2018-11-05T19:20:34.174Z,50.07
2018-11-05T19:23:05.449Z,50.36
2018-11-05T19:25:35.666Z,50.20
2018-11-05T19:28:05.660Z,50.07
2018-11-05T19:30:42.834Z,49.82
2018-11-05T19:33:13.338Z,49.98
2018-11-05T19:35:43.157Z,49.94
2018-11-05T19:38:13.762Z,49.87
2018-11-05T19:40:44.070Z,49.90
2018-11-05T19:43:14.641Z,49.86
2018-11-05T19:45:48.280Z,50.22
2018-11-05T19:48:19.634Z,50.11
2018-11-05T19:50:49.696Z,49.81
2018-11-05T19:53:19.875Z,49.82
2018-11-05T19:55:50.108Z,49.95
2018-11-05T19:58:20.440Z,50.12
2018-11-05T20:00:50.295Z,50.00
2018-11-05T20:03:21.162Z,49.62
2018-11-05T20:05:51.580Z,50.00
2018-11-05T20:08:21.759Z,50.17
2018-11-05T20:10:53.273Z,50.08
2018-11-05T20:13:23.190Z,50.14
2018-11-05T20:15:53.394Z,49.84
2018-11-05T20:18:26.769Z,50.15
2018-11-05T20:20:58.483Z,49.82
2018-11-05T20:23:29.283Z,50.04
2018-11-05T20:25:59.466Z,49.96
2018-11-05T20:28:29.321Z,49.83
2018-11-05T20:30:59.534Z,49.97
2018-11-05T20:33:30.517Z,49.83
2018-11-05T20:36:00.618Z,49.89
2018-11-05T20:38:30.548Z,49.67
2018-11-05T20:41:01.114Z,49.96
2018-11-05T20:43:31.933Z,49.94
2018-11-05T20:46:02.777Z,49.81
2018-11-05T20:48:34.790Z,49.94
2018-11-05T20:51:10.992Z,50.06
2018-11-05T20:53:43.208Z,49.78
2018-11-05T20:56:13.222Z,49.85
2018-11-05T20:58:43.254Z,50.01
2018-11-05T21:01:13.697Z,50.07
2018-11-05T21:03:43.593Z,50.01
2018-11-05T21:06:13.759Z,50.37
2018-11-05T21:08:43.780Z,49.98
2018-11-05T21:11:14.185Z,50.31
2018-11-05T21:13:43.875Z,49.94
2018-11-05T21:16:13.782Z,50.26
2018-11-05T21:18:44.673Z,50.34
2018-11-05T21:21:14.551Z,50.52
2018-11-05T21:23:44.314Z,50.65
2018-11-05T21:26:14.350Z,50.46
2018-11-05T21:28:43.885Z,50.66
2018-11-05T21:31:14.247Z,50.69
2018-11-05T21:33:43.786Z,50.81
2018-11-05T21:36:15.174Z,50.88
2018-11-05T21:38:45.382Z,51.24
2018-11-05T21:41:19.094Z,50.94
2018-11-05T21:43:50.526Z,51.23
2018-11-05T21:46:21.261Z,51.12
2018-11-05T21:48:52.073Z,51.35
2018-11-05T21:51:23.096Z,51.42
2018-11-05T21:53:52.609Z,50.90
2018-11-05T21:56:22.192Z,51.36
2018-11-05T21:58:52.026Z,51.53
2018-11-05T22:01:22.302Z,51.77
2018-11-05T22:03:52.308Z,51.62
2018-11-05T22:06:22.201Z,51.57
2018-11-05T22:08:51.607Z,51.74
2018-11-05T22:11:21.769Z,51.93
2018-11-05T22:13:52.177Z,51.77
2018-11-05T22:16:21.622Z,51.92
2018-11-05T22:18:51.272Z,51.75
2018-11-05T22:21:21.138Z,52.12
2018-11-05T22:23:55.585Z,51.86
2018-11-05T22:26:25.185Z,51.89
2018-11-05T22:28:56.346Z,52.09
2018-11-05T22:31:26.123Z,51.87
2018-11-05T22:33:58.583Z,52.07
2018-11-05T22:36:30.183Z,51.96
2018-11-05T22:39:02.446Z,51.83
2018-11-05T22:41:32.229Z,52.25
2018-11-05T22:44:02.493Z,51.83
2018-11-05T22:46:32.695Z,52.14
2018-11-05T22:49:04.182Z,52.33
2018-11-05T22:51:34.819Z,52.44
2018-11-05T22:54:05.179Z,52.61
2018-11-05T22:56:37.433Z,52.37
2018-11-05T22:59:08.862Z,52.08
2018-11-05T23:01:44.825Z,52.61
2018-11-05T23:04:15.116Z,52.50
2018-11-05T23:06:45.711Z,51.99
2018-11-05T23:09:15.603Z,52.24
2018-11-05T23:11:46.133Z,52.14
2018-11-05T23:14:16.063Z,52.54
2018-11-05T23:16:47.954Z,51.94
2018-11-05T23:19:17.853Z,52.42
2018-11-05T23:21:47.590Z,52.37
2018-11-05T23:24:17.118Z,52.19
2018-11-05T23:26:47.094Z,52.43
2018-11-05T23:29:16.507Z,52.03
2018-11-05T23:31:45.950Z,52.45
2018-11-05T23:34:15.425Z,52.33
2018-11-05T23:36:44.866Z,52.19
2018-11-05T23:39:14.345Z,52.21
2018-11-05T23:41:44.153Z,52.00
2018-11-05T23:44:13.648Z,52.34
2018-11-05T23:46:43.187Z,52.20
2018-11-05T23:49:14.002Z,52.27
2018-11-05T23:51:44.779Z,52.37
2018-11-05T23:54:14.418Z,52.16
2018-11-05T23:56:45.160Z,52.27
2018-11-05T23:59:17.722Z,52.05
